Aérodrome :
LOGIN :

S'inscrire | Disclaimer

   EN    FR    IT 

 










Légende :    VFR   VFR Marginal   IFR   IFR Intensif   IFR Très Intensif
Visi : 
Plafond : 
>= 8 km
>= 3000ft
5 à 8 km
1000 à 3000 ft
1500m à 5 km
500 à 1000 ft
800 à 1500m
200 à 500 ft
< 800m
< 200 ft
Symboles :   Orages  Brouillard  Fortes neiges  Fortes précipitations  Vent > 20 kt
SIGMETs :   Divers  Orages  Givrage  Turbulence  Onde Orograph.  Cendres Volcan.






- Altitude de l'aérodrome : 15 ft
- Code IATA : FCO


LIRF - Roma Leonardo da Vinci Fiumicino

DERNIER METAR :
  • 151820Z 13007KT 9999 FEW045 14/13 Q1019 NOSIG

METARs EXPIRÉS :
  • 151750Z 13008KT 9999 FEW050 14/13 Q1019 NOSIG
  • 151720Z 13007KT 9999 SCT050 14/13 Q1019 NOSIG
  • 151650Z 14007KT 9999 FEW050 15/13 Q1018 NOSIG
  • 151620Z 14006KT 9999 SCT045 15/13 Q1018 NOSIG
  • 151550Z 15007KT 9999 SCT040 16/13 Q1018 NOSIG

TAF TAF LIRF
Valide du 15 à 18h jusqu'au 17 à 00h UTC


151700Z 1518/1624 12012KT 9999 SCT025
BECMG 1609/1611 14015G25KT



MET'MAP, la Météo Aéronautique d'un coup d'oeil ! - Copyright ORBIFLY Décembre 2007 - Disclaimer

ORBIFLY MET'MAP TEAM :

Programmation & Développement : Alexandra Zaïnal
Sur une idée originale de : Baudouin d'Aumeries
Assistance à la programmation : Marc-Olivier Méhu
Soutien technique & logistique : Manuel Goepfert

Contact : metmap@orbifly.com




SOURCES & CREDITS :

   NOAA